Terminal Aerodrome Forecast
Issued by NWS

Home | Current Version | Previous Version | Text Only | Print | Product List | Glossary On
Versions: 1 2 3 4 5 6 7 8 9 10 11 12 13 14 15 16 17 18 19 20 21
136
FTUS46 KSEW 260901 AAA
TAFBLI
TAF AMD
KBLI 260901Z 2609/2706 VRB03KT P6SM SCT050 OVC150
     FM261200 06006KT P6SM BKN050 OVC110
     FM261500 09009KT P6SM -RA BKN035 OVC050
     FM261800 11013G20KT P6SM -RA OVC035
     FM262100 11015G25KT 5SM -RA BR OVC028
     FM270300 14013G20KT P6SM -SHRA SCT009 OVC022=

USA.gov is the U.S. government's official web portal to all federal, state and local government web resources and services.